^^
Datos históricos de la estación: Murcia-Puente Tocinos
Diario Informe para Marzo 22, 2019 Unidades:  Ambas    Inglés   Métrico
Diario Semanal Mensual Anual Configurable
  Máximo: Mínimo: Media:
Temperatura: 66.6 °F /  19.2 °C 46.8 °F /  8.2 °C 56.5 °F /  13.6 °C
Punto de rocio: 45.5 °F /  7.5 °C 35.1 °F /  1.7 °C 39.6 °F /  4.2 °C
Humedad: 67% 37% 54%
Velocidad viento: 8.1mph /  13.0km/h - 4.5mph /  7.2km/h
Racha viento: 14.5mph /  23.3km/h - -
Viento- - South
Presión: 30.3 in /  1026.0 hPa 30.2 in /  1022.5 hPa -
Precipitación: 0 in /  0.0 mm    
Historical Graphs
 
 
Tabla de datos para Marzo 22, 2019
Hora Temperatura Punto de rocio Presión Viento Velocidad viento Racha viento Humedad Intensidad lluvia(por hora) Nubes
00:00 50.9 °F /  10.5 °C 38.5 °F /  3.6 °C 30.3in /  1025.7hPa WNW 2mph /  3.2km/h 5mph /  8.0km/h 62% 0in /  0.0mm CLR
00:05 50.9 °F /  10.5 °C 39 °F /  3.9 °C 30.3in /  1025.7hPa SE 2mph /  3.2km/h 5.8mph /  9.3km/h 64% 0in /  0.0mm CLR
00:10 50.9 °F /  10.5 °C 39.6 °F /  4.2 °C 30.3in /  1025.7hPa SE 2.9mph /  4.7km/h 3.5mph /  5.6km/h 65% 0in /  0.0mm CLR
00:15 50.9 °F /  10.5 °C 39.6 °F /  4.2 °C 30.3in /  1025.7hPa SE 2.9mph /  4.7km/h 2.9mph /  4.7km/h 65% 0in /  0.0mm CLR
00:20 50.7 °F /  10.4 °C 39.4 °F /  4.1 °C 30.3in /  1025.6hPa SE 2mph /  3.2km/h 2.3mph /  3.7km/h 65% 0in /  0.0mm CLR
00:25 50.7 °F /  10.4 °C 39.4 °F /  4.1 °C 30.3in /  1025.6hPa SE 2mph /  3.2km/h 4.6mph /  7.4km/h 65% 0in /  0.0mm CLR
00:30 50.9 °F /  10.5 °C 39.9 °F /  4.4 °C 30.3in /  1025.6hPa SE 2mph /  3.2km/h 3.1mph /  5.0km/h 66% 0in /  0.0mm CLR
00:35 50.9 °F /  10.5 °C 39.9 °F /  4.4 °C 30.3in /  1025.6hPa SSE 2mph /  3.2km/h 4.6mph /  7.4km/h 66% 0in /  0.0mm CLR
00:40 50.7 °F /  10.4 °C 39.4 °F /  4.1 °C 30.3in /  1025.6hPa WSW 2.4mph /  3.9km/h 4.6mph /  7.4km/h 65% 0in /  0.0mm CLR
00:45 50.7 °F /  10.4 °C 39 °F /  3.9 °C 30.3in /  1025.6hPa WSW 2.4mph /  3.9km/h 3.5mph /  5.6km/h 64% 0in /  0.0mm CLR
00:50 50.5 °F /  10.3 °C 38.5 °F /  3.6 °C 30.3in /  1025.4hPa WSW 2.9mph /  4.7km/h 4.6mph /  7.4km/h 63% 0in /  0.0mm CLR
00:55 50.5 °F /  10.3 °C 38.5 °F /  3.6 °C 30.3in /  1025.4hPa WSW 2.9mph /  4.7km/h 4.7mph /  7.6km/h 63% 0in /  0.0mm CLR
01:00 50.5 °F /  10.3 °C 38.5 °F /  3.6 °C 30.3in /  1025.4hPa WSW 2mph /  3.2km/h 6mph /  9.7km/h 63% 0in /  0.0mm CLR
01:05 50.5 °F /  10.3 °C 38.5 °F /  3.6 °C 30.3in /  1025.3hPa WSW 2.9mph /  4.7km/h 2.3mph /  3.7km/h 63% 0in /  0.0mm CLR
01:10 50.7 °F /  10.4 °C 38.7 °F /  3.7 °C 30.3in /  1025.3hPa SSW 2.4mph /  3.9km/h 4.7mph /  7.6km/h 63% 0in /  0.0mm CLR
01:15 50.7 °F /  10.4 °C 38.7 °F /  3.7 °C 30.3in /  1025.3hPa SW 2.4mph /  3.9km/h 5.8mph /  9.3km/h 63% 0in /  0.0mm CLR
01:20 50.5 °F /  10.3 °C 38.5 °F /  3.6 °C 30.3in /  1025.3hPa SSW 4mph /  6.4km/h 5.8mph /  9.3km/h 63% 0in /  0.0mm CLR
01:25 50.4 °F /  10.2 °C 38.1 °F /  3.4 °C 30.3in /  1025.3hPa SSW 4mph /  6.4km/h 5.9mph /  9.5km/h 63% 0in /  0.0mm CLR
01:30 50.2 °F /  10.1 °C 38.1 °F /  3.4 °C 30.3in /  1025.3hPa SSW 4mph /  6.4km/h 5.8mph /  9.3km/h 63% 0in /  0.0mm CLR
01:35 50 °F /  10.0 °C 37.9 °F /  3.3 °C 30.3in /  1025.3hPa SW 4mph /  6.4km/h 4.6mph /  7.4km/h 63% 0in /  0.0mm CLR
01:40 49.8 °F /  9.9 °C 37.8 °F /  3.2 °C 30.3in /  1025.3hPa SSW 4mph /  6.4km/h 5.8mph /  9.3km/h 63% 0in /  0.0mm CLR
01:45 49.8 °F /  9.9 °C 37.8 °F /  3.2 °C 30.3in /  1025.3hPa SSW 4mph /  6.4km/h 4.6mph /  7.4km/h 63% 0in /  0.0mm CLR
01:50 49.6 °F /  9.8 °C 37.6 °F /  3.1 °C 30.3in /  1025.3hPa SSW 4mph /  6.4km/h 4.6mph /  7.4km/h 63% 0in /  0.0mm CLR
01:55 49.6 °F /  9.8 °C 37.6 °F /  3.1 °C 30.3in /  1025.3hPa WSW 4mph /  6.4km/h 4.7mph /  7.6km/h 63% 0in /  0.0mm CLR
02:00 49.5 °F /  9.7 °C 37.4 °F /  3.0 °C 30.3in /  1025.3hPa SSW 5mph /  8.0km/h 6mph /  9.7km/h 63% 0in /  0.0mm CLR
02:05 49.3 °F /  9.6 °C 36.9 °F /  2.7 °C 30.3in /  1025.4hPa SW 4mph /  6.4km/h 7.4mph /  11.9km/h 62% 0in /  0.0mm CLR
02:10 49.3 °F /  9.6 °C 36.9 °F /  2.7 °C 30.3in /  1025.4hPa SW 4.7mph /  7.6km/h 8.1mph /  13.0km/h 62% 0in /  0.0mm CLR
02:15 49.3 °F /  9.6 °C 36.9 °F /  2.7 °C 30.3in /  1025.4hPa SW 4.7mph /  7.6km/h 8.1mph /  13.0km/h 62% 0in /  0.0mm CLR
02:20 49.1 °F /  9.5 °C 36.7 °F /  2.6 °C 30.3in /  1025.4hPa SW 5.4mph /  8.7km/h 5.8mph /  9.3km/h 62% 0in /  0.0mm CLR
02:25 49.1 °F /  9.5 °C 37 °F /  2.8 °C 30.3in /  1025.4hPa SW 5.4mph /  8.7km/h 8.1mph /  13.0km/h 63% 0in /  0.0mm CLR
02:30 48.9 °F /  9.4 °C 36.5 °F /  2.5 °C 30.3in /  1025.4hPa SSW 4.7mph /  7.6km/h 5.8mph /  9.3km/h 62% 0in /  0.0mm CLR
02:35 48.9 °F /  9.4 °C 36.5 °F /  2.5 °C 30.3in /  1025.4hPa SSW 4.7mph /  7.6km/h 8.1mph /  13.0km/h 62% 0in /  0.0mm CLR
02:40 48.9 °F /  9.4 °C 36.9 °F /  2.7 °C 30.3in /  1025.4hPa SW 4.3mph /  6.9km/h 6.9mph /  11.1km/h 63% 0in /  0.0mm CLR
02:45 48.6 °F /  9.2 °C 36.9 °F /  2.7 °C 30.3in /  1025.4hPa SSW 4.3mph /  6.9km/h 8.1mph /  13.0km/h 64% 0in /  0.0mm CLR
02:50 48.6 °F /  9.2 °C 37.2 °F /  2.9 °C 30.3in /  1025.5hPa SW 5.4mph /  8.7km/h 8.1mph /  13.0km/h 65% 0in /  0.0mm CLR
02:55 48.6 °F /  9.2 °C 37.2 °F /  2.9 °C 30.3in /  1025.5hPa SSW 5.4mph /  8.7km/h 6.9mph /  11.1km/h 65% 0in /  0.0mm CLR
03:00 48.6 °F /  9.2 °C 37.2 °F /  2.9 °C 30.3in /  1025.5hPa SSW 6mph /  9.7km/h 8mph /  12.9km/h 65% 0in /  0.0mm CLR
03:05 48.6 °F /  9.2 °C 36.9 °F /  2.7 °C 30.3in /  1025.3hPa SW 5.4mph /  8.7km/h 8.1mph /  13.0km/h 64% 0in /  0.0mm CLR
03:10 48.6 °F /  9.2 °C 36.9 °F /  2.7 °C 30.3in /  1025.3hPa SSW 5.9mph /  9.5km/h 9.2mph /  14.8km/h 64% 0in /  0.0mm CLR
03:15 48.6 °F /  9.2 °C 36.5 °F /  2.5 °C 30.3in /  1025.3hPa SSW 5.9mph /  9.5km/h 10.4mph /  16.7km/h 63% 0in /  0.0mm CLR
03:20 48.6 °F /  9.2 °C 36.5 °F /  2.5 °C 30.3in /  1025.1hPa SW 6.2mph /  10.0km/h 9.2mph /  14.8km/h 63% 0in /  0.0mm CLR
03:25 48.6 °F /  9.2 °C 36.1 °F /  2.3 °C 30.3in /  1025.1hPa SW 6.2mph /  10.0km/h 8.1mph /  13.0km/h 62% 0in /  0.0mm CLR
03:30 48.6 °F /  9.2 °C 35.8 °F /  2.1 °C 30.3in /  1025.1hPa SW 5.4mph /  8.7km/h 8.1mph /  13.0km/h 61% 0in /  0.0mm CLR
03:35 48.6 °F /  9.2 °C 35.2 °F /  1.8 °C 30.3in /  1024.9hPa SW 5.4mph /  8.7km/h 6.9mph /  11.1km/h 60% 0in /  0.0mm CLR
03:40 48.6 °F /  9.2 °C 35.2 °F /  1.8 °C 30.3in /  1024.9hPa SW 5.4mph /  8.7km/h 8.1mph /  13.0km/h 60% 0in /  0.0mm CLR
03:45 48.6 °F /  9.2 °C 35.2 °F /  1.8 °C 30.3in /  1024.9hPa SW 5.4mph /  8.7km/h 8.1mph /  13.0km/h 60% 0in /  0.0mm CLR
03:50 48.4 °F /  9.1 °C 35.1 °F /  1.7 °C 30.3in /  1025.0hPa SW 5.2mph /  8.4km/h 5.8mph /  9.3km/h 60% 0in /  0.0mm CLR
03:55 48.4 °F /  9.1 °C 35.1 °F /  1.7 °C 30.3in /  1025.0hPa SW 5.2mph /  8.4km/h 5.2mph /  8.4km/h 60% 0in /  0.0mm CLR
04:00 48.4 °F /  9.1 °C 35.1 °F /  1.7 °C 30.3in /  1025.0hPa SW 5mph /  8.0km/h 8mph /  12.9km/h 60% 0in /  0.0mm CLR
04:05 48.4 °F /  9.1 °C 35.4 °F /  1.9 °C 30.3in /  1025.0hPa SSW 4mph /  6.4km/h 8.1mph /  13.0km/h 61% 0in /  0.0mm CLR
04:10 48.4 °F /  9.1 °C 35.4 °F /  1.9 °C 30.3in /  1025.0hPa SW 5.2mph /  8.4km/h 6.9mph /  11.1km/h 61% 0in /  0.0mm CLR
04:15 48.4 °F /  9.1 °C 36 °F /  2.2 °C 30.3in /  1025.0hPa SSE 5.2mph /  8.4km/h 10.4mph /  16.7km/h 62% 0in /  0.0mm CLR
04:20 48.4 °F /  9.1 °C 36 °F /  2.2 °C 30.3in /  1025.0hPa SW 5.2mph /  8.4km/h 5.8mph /  9.3km/h 62% 0in /  0.0mm CLR
04:25 48.6 °F /  9.2 °C 36.1 °F /  2.3 °C 30.3in /  1025.0hPa WSW 5.2mph /  8.4km/h 6.9mph /  11.1km/h 62% 0in /  0.0mm CLR
04:30 48.6 °F /  9.2 °C 36.1 °F /  2.3 °C 30.3in /  1025.0hPa SW 4.7mph /  7.6km/h 9.2mph /  14.8km/h 62% 0in /  0.0mm CLR
04:35 48.6 °F /  9.2 °C 36.1 °F /  2.3 °C 30.3in /  1024.9hPa SSW 4.7mph /  7.6km/h 10.4mph /  16.7km/h 62% 0in /  0.0mm CLR
04:40 48.4 °F /  9.1 °C 36 °F /  2.2 °C 30.3in /  1024.9hPa SW 5.9mph /  9.5km/h 9.2mph /  14.8km/h 62% 0in /  0.0mm CLR
04:45 48.4 °F /  9.1 °C 36 °F /  2.2 °C 30.3in /  1024.9hPa SSW 5.9mph /  9.5km/h 6.9mph /  11.1km/h 62% 0in /  0.0mm CLR
04:50 48.4 °F /  9.1 °C 36.3 °F /  2.4 °C 30.3in /  1024.8hPa WSW 5.9mph /  9.5km/h 6.9mph /  11.1km/h 63% 0in /  0.0mm CLR
04:55 48.4 °F /  9.1 °C 36.3 °F /  2.4 °C 30.3in /  1024.8hPa SSW 5.9mph /  9.5km/h 6.9mph /  11.1km/h 63% 0in /  0.0mm CLR
05:00 48.4 °F /  9.1 °C 36.3 °F /  2.4 °C 30.3in /  1024.8hPa SW 5mph /  8.0km/h 9mph /  14.5km/h 63% 0in /  0.0mm CLR
05:05 48.4 °F /  9.1 °C 36.3 °F /  2.4 °C 30.3in /  1024.9hPa SW 4.7mph /  7.6km/h 6.9mph /  11.1km/h 63% 0in /  0.0mm CLR
05:10 48.4 °F /  9.1 °C 36.3 °F /  2.4 °C 30.3in /  1024.9hPa WSW 5.4mph /  8.7km/h 6.9mph /  11.1km/h 63% 0in /  0.0mm CLR
05:15 48.4 °F /  9.1 °C 36.3 °F /  2.4 °C 30.3in /  1024.9hPa SW 5.4mph /  8.7km/h 8.1mph /  13.0km/h 63% 0in /  0.0mm CLR
05:20 48.2 °F /  9.0 °C 36.1 °F /  2.3 °C 30.3in /  1024.9hPa WSW 4.7mph /  7.6km/h 7.4mph /  11.9km/h 63% 0in /  0.0mm CLR
05:25 48.2 °F /  9.0 °C 36.7 °F /  2.6 °C 30.3in /  1024.9hPa WSW 4.7mph /  7.6km/h 8.1mph /  13.0km/h 64% 0in /  0.0mm CLR
05:30 48 °F /  8.9 °C 36.3 °F /  2.4 °C 30.3in /  1024.9hPa WSW 4.7mph /  7.6km/h 5.9mph /  9.5km/h 64% 0in /  0.0mm CLR
05:35 48 °F /  8.9 °C 36.3 °F /  2.4 °C 30.3in /  1024.9hPa SSW 4.7mph /  7.6km/h 5.4mph /  8.7km/h 64% 0in /  0.0mm CLR
05:40 47.8 °F /  8.8 °C 36.1 °F /  2.3 °C 30.3in /  1024.9hPa WSW 4mph /  6.4km/h 4.7mph /  7.6km/h 64% 0in /  0.0mm CLR
05:45 47.8 °F /  8.8 °C 36.1 °F /  2.3 °C 30.3in /  1024.9hPa SSW 4mph /  6.4km/h 4.6mph /  7.4km/h 64% 0in /  0.0mm CLR
05:50 47.7 °F /  8.7 °C 36.5 °F /  2.5 °C 30.3in /  1024.9hPa SW 3.6mph /  5.8km/h 6.9mph /  11.1km/h 65% 0in /  0.0mm CLR
05:55 47.5 °F /  8.6 °C 36.3 °F /  2.4 °C 30.3in /  1024.9hPa SW 3.6mph /  5.8km/h 4.7mph /  7.6km/h 65% 0in /  0.0mm CLR
06:00 47.3 °F /  8.5 °C 36.1 °F /  2.3 °C 30.3in /  1024.9hPa WSW 5mph /  8.0km/h 8mph /  12.9km/h 65% 0in /  0.0mm CLR
06:05 47.1 °F /  8.4 °C 36.3 °F /  2.4 °C 30.3in /  1024.8hPa WSW 4mph /  6.4km/h 5.8mph /  9.3km/h 66% 0in /  0.0mm CLR
06:10 46.9 °F /  8.3 °C 36.1 °F /  2.3 °C 30.3in /  1024.8hPa SW 4.3mph /  6.9km/h 5.8mph /  9.3km/h 66% 0in /  0.0mm CLR
06:15 46.8 °F /  8.2 °C 36 °F /  2.2 °C 30.3in /  1024.8hPa SW 4.3mph /  6.9km/h 5.8mph /  9.3km/h 66% 0in /  0.0mm CLR
06:20 46.9 °F /  8.3 °C 36.1 °F /  2.3 °C 30.3in /  1024.8hPa SW 4.7mph /  7.6km/h 7.6mph /  12.2km/h 66% 0in /  0.0mm CLR
06:25 46.9 °F /  8.3 °C 36.1 °F /  2.3 °C 30.3in /  1024.8hPa SSW 4.7mph /  7.6km/h 9.2mph /  14.8km/h 66% 0in /  0.0mm CLR
06:30 47.1 °F /  8.4 °C 36.3 °F /  2.4 °C 30.3in /  1024.8hPa SSW 5.2mph /  8.4km/h 8.1mph /  13.0km/h 66% 0in /  0.0mm CLR
06:35 47.3 °F /  8.5 °C 36.1 °F /  2.3 °C 30.3in /  1024.8hPa SW 5.2mph /  8.4km/h 5.8mph /  9.3km/h 65% 0in /  0.0mm CLR
06:40 47.5 °F /  8.6 °C 36.3 °F /  2.4 °C 30.3in /  1024.8hPa SW 4.7mph /  7.6km/h 5.8mph /  9.3km/h 65% 0in /  0.0mm CLR
06:45 47.5 °F /  8.6 °C 36.3 °F /  2.4 °C 30.3in /  1024.8hPa SSW 4.7mph /  7.6km/h 6.9mph /  11.1km/h 65% 0in /  0.0mm CLR
06:50 47.5 °F /  8.6 °C 36.3 °F /  2.4 °C 30.3in /  1024.9hPa West 4mph /  6.4km/h 5.8mph /  9.3km/h 65% 0in /  0.0mm CLR
06:55 47.5 °F /  8.6 °C 36.3 °F /  2.4 °C 30.3in /  1024.9hPa WSW 4mph /  6.4km/h 4.7mph /  7.6km/h 65% 0in /  0.0mm CLR
07:00 47.1 °F /  8.4 °C 36 °F /  2.2 °C 30.3in /  1024.9hPa WSW 3mph /  4.8km/h 7mph /  11.3km/h 65% 0in /  0.0mm CLR
07:05 46.9 °F /  8.3 °C 36.1 °F /  2.3 °C 30.3in /  1025.0hPa West 3.6mph /  5.8km/h 4.7mph /  7.6km/h 66% 0in /  0.0mm CLR
07:10 46.8 °F /  8.2 °C 36 °F /  2.2 °C 30.3in /  1025.0hPa West 3.1mph /  5.0km/h 3.5mph /  5.6km/h 66% 0in /  0.0mm CLR
07:15 46.8 °F /  8.2 °C 36.3 °F /  2.4 °C 30.3in /  1025.0hPa SW 3.1mph /  5.0km/h 5.8mph /  9.3km/h 67% 0in /  0.0mm CLR
07:20 46.9 °F /  8.3 °C 36.5 °F /  2.5 °C 30.3in /  1025.2hPa SW 3.6mph /  5.8km/h 6.9mph /  11.1km/h 67% 0in /  0.0mm CLR
07:25 47.1 °F /  8.4 °C 36.3 °F /  2.4 °C 30.3in /  1025.2hPa SSW 3.6mph /  5.8km/h 8.1mph /  13.0km/h 66% 0in /  0.0mm CLR
07:30 47.3 °F /  8.5 °C 36.5 °F /  2.5 °C 30.3in /  1025.2hPa SW 5.2mph /  8.4km/h 8.1mph /  13.0km/h 66% 0in /  0.0mm CLR
07:35 47.5 °F /  8.6 °C 36.7 °F /  2.6 °C 30.3in /  1025.4hPa SW 5.2mph /  8.4km/h 8.1mph /  13.0km/h 66% 0in /  0.0mm CLR
07:40 47.5 °F /  8.6 °C 36.7 °F /  2.6 °C 30.3in /  1025.4hPa South 5.2mph /  8.4km/h 6.9mph /  11.1km/h 66% 0in /  0.0mm CLR
07:45 47.7 °F /  8.7 °C 36.9 °F /  2.7 °C 30.3in /  1025.4hPa SW 5.2mph /  8.4km/h 8.1mph /  13.0km/h 66% 0in /  0.0mm CLR
07:50 47.7 °F /  8.7 °C 36.5 °F /  2.5 °C 30.3in /  1025.5hPa SW 4mph /  6.4km/h 4.6mph /  7.4km/h 65% 0in /  0.0mm CLR
07:55 47.8 °F /  8.8 °C 36.7 °F /  2.6 °C 30.3in /  1025.5hPa SSE 4mph /  6.4km/h 4.6mph /  7.4km/h 65% 0in /  0.0mm CLR
08:00 48 °F /  8.9 °C 36.9 °F /  2.7 °C 30.3in /  1025.5hPa South 2mph /  3.2km/h 6mph /  9.7km/h 65% 0in /  0.0mm CLR
08:05 48.2 °F /  9.0 °C 36.7 °F /  2.6 °C 30.3in /  1025.7hPa SSW 2.9mph /  4.7km/h 6.4mph /  10.3km/h 64% 0in /  0.0mm CLR
08:10 48.6 °F /  9.2 °C 36.9 °F /  2.7 °C 30.3in /  1025.7hPa SSW 4mph /  6.4km/h 7.4mph /  11.9km/h 64% 0in /  0.0mm CLR
08:15 48.7 °F /  9.3 °C 36.7 °F /  2.6 °C 30.3in /  1025.7hPa SSE 4mph /  6.4km/h 5.8mph /  9.3km/h 63% 0in /  0.0mm CLR
08:20 48.9 °F /  9.4 °C 36.9 °F /  2.7 °C 30.3in /  1025.6hPa SW 5.2mph /  8.4km/h 8.1mph /  13.0km/h 63% 0in /  0.0mm CLR
08:25 49.5 °F /  9.7 °C 37 °F /  2.8 °C 30.3in /  1025.6hPa SSW 5.2mph /  8.4km/h 8.1mph /  13.0km/h 62% 0in /  0.0mm CLR
08:30 49.6 °F /  9.8 °C 37 °F /  2.8 °C 30.3in /  1025.6hPa WSW 5.2mph /  8.4km/h 5.8mph /  9.3km/h 62% 0in /  0.0mm CLR
08:35 50 °F /  10.0 °C 37 °F /  2.8 °C 30.3in /  1025.6hPa SSW 5.2mph /  8.4km/h 9.2mph /  14.8km/h 61% 0in /  0.0mm CLR
08:40 50 °F /  10.0 °C 36.7 °F /  2.6 °C 30.3in /  1025.6hPa SSW 4.3mph /  6.9km/h 9.2mph /  14.8km/h 60% 0in /  0.0mm CLR
08:45 50.2 °F /  10.1 °C 36.9 °F /  2.7 °C 30.3in /  1025.6hPa South 4.3mph /  6.9km/h 6.4mph /  10.3km/h 60% 0in /  0.0mm CLR
08:50 50.4 °F /  10.2 °C 37 °F /  2.8 °C 30.3in /  1025.6hPa SSW 5.9mph /  9.5km/h 10.4mph /  16.7km/h 60% 0in /  0.0mm CLR
08:55 50.7 °F /  10.4 °C 36.9 °F /  2.7 °C 30.3in /  1025.6hPa WSW 5.9mph /  9.5km/h 10.4mph /  16.7km/h 59% 0in /  0.0mm CLR
09:00 50.7 °F /  10.4 °C 37 °F /  2.8 °C 30.3in /  1025.6hPa SSW 6mph /  9.7km/h 9mph /  14.5km/h 59% 0in /  0.0mm CLR
09:05 51.3 °F /  10.7 °C 37.4 °F /  3.0 °C 30.3in /  1025.7hPa SW 5.4mph /  8.7km/h 10.4mph /  16.7km/h 59% 0in /  0.0mm CLR
09:10 51.3 °F /  10.7 °C 37 °F /  2.8 °C 30.3in /  1025.7hPa SW 5.9mph /  9.5km/h 10.4mph /  16.7km/h 58% 0in /  0.0mm CLR
09:15 51.3 °F /  10.7 °C 37.4 °F /  3.0 °C 30.3in /  1025.7hPa West 5.9mph /  9.5km/h 10.4mph /  16.7km/h 59% 0in /  0.0mm CLR
09:20 51.6 °F /  10.9 °C 37.2 °F /  2.9 °C 30.3in /  1025.7hPa SW 5.4mph /  8.7km/h 11.5mph /  18.5km/h 58% 0in /  0.0mm CLR
09:25 52 °F /  11.1 °C 37.8 °F /  3.2 °C 30.3in /  1025.7hPa WSW 5.4mph /  8.7km/h 8.1mph /  13.0km/h 58% 0in /  0.0mm CLR
09:30 52.2 °F /  11.2 °C 37.8 °F /  3.2 °C 30.3in /  1025.7hPa WSW 6.2mph /  10.0km/h 9.2mph /  14.8km/h 58% 0in /  0.0mm CLR
09:35 52.5 °F /  11.4 °C 37.8 °F /  3.2 °C 30.3in /  1025.8hPa West 6.2mph /  10.0km/h 9.2mph /  14.8km/h 57% 0in /  0.0mm CLR
09:40 52.9 °F /  11.6 °C 38.1 °F /  3.4 °C 30.3in /  1025.8hPa SW 5.4mph /  8.7km/h 8.7mph /  14.0km/h 57% 0in /  0.0mm CLR
09:45 53.1 °F /  11.7 °C 38.1 °F /  3.4 °C 30.3in /  1025.8hPa SSW 5.4mph /  8.7km/h 8.1mph /  13.0km/h 57% 0in /  0.0mm CLR
09:50 53.2 °F /  11.8 °C 37.9 °F /  3.3 °C 30.3in /  1025.9hPa SW 5.4mph /  8.7km/h 7.4mph /  11.9km/h 56% 0in /  0.0mm CLR
09:55 53.4 °F /  11.9 °C 38.1 °F /  3.4 °C 30.3in /  1025.9hPa West 5.4mph /  8.7km/h 8.1mph /  13.0km/h 56% 0in /  0.0mm CLR
10:00 53.8 °F /  12.1 °C 38.5 °F /  3.6 °C 30.3in /  1025.9hPa SW 5mph /  8.0km/h 12mph /  19.3km/h 56% 0in /  0.0mm CLR
10:05 54 °F /  12.2 °C 38.1 °F /  3.4 °C 30.3in /  1026.0hPa WSW 4.7mph /  7.6km/h 9.2mph /  14.8km/h 55% 0in /  0.0mm CLR
10:10 54.1 °F /  12.3 °C 38.8 °F /  3.8 °C 30.3in /  1026.0hPa South 5.4mph /  8.7km/h 6.9mph /  11.1km/h 56% 0in /  0.0mm CLR
10:15 54.1 °F /  12.3 °C 38.3 °F /  3.5 °C 30.3in /  1026.0hPa West 5.4mph /  8.7km/h 5.8mph /  9.3km/h 55% 0in /  0.0mm CLR
10:20 54.5 °F /  12.5 °C 38.7 °F /  3.7 °C 30.3in /  1026.0hPa SW 5.4mph /  8.7km/h 8.1mph /  13.0km/h 55% 0in /  0.0mm CLR
10:25 55 °F /  12.8 °C 38.7 °F /  3.7 °C 30.3in /  1026.0hPa SW 5.4mph /  8.7km/h 9.2mph /  14.8km/h 54% 0in /  0.0mm CLR
10:30 55.2 °F /  12.9 °C 38.5 °F /  3.6 °C 30.3in /  1026.0hPa SW 5.4mph /  8.7km/h 9.2mph /  14.8km/h 53% 0in /  0.0mm CLR
10:35 55.6 °F /  13.1 °C 38.7 °F /  3.7 °C 30.3in /  1025.9hPa West 5.4mph /  8.7km/h 9.2mph /  14.8km/h 53% 0in /  0.0mm CLR
10:40 55.8 °F /  13.2 °C 38.8 °F /  3.8 °C 30.3in /  1025.9hPa WSW 5.4mph /  8.7km/h 9.2mph /  14.8km/h 53% 0in /  0.0mm CLR
10:45 55.8 °F /  13.2 °C 38.8 °F /  3.8 °C 30.3in /  1025.9hPa South 5.4mph /  8.7km/h 5.9mph /  9.5km/h 53% 0in /  0.0mm CLR
10:50 56.1 °F /  13.4 °C 38.7 °F /  3.7 °C 30.3in /  1025.7hPa SSW 5.4mph /  8.7km/h 8.5mph /  13.7km/h 52% 0in /  0.0mm CLR
10:55 56.7 °F /  13.7 °C 39.2 °F /  4.0 °C 30.3in /  1025.7hPa WSW 5.4mph /  8.7km/h 8.1mph /  13.0km/h 52% 0in /  0.0mm CLR
11:00 56.8 °F /  13.8 °C 38.8 °F /  3.8 °C 30.3in /  1025.7hPa SW 5mph /  8.0km/h 10mph /  16.1km/h 51% 0in /  0.0mm CLR
11:05 57 °F /  13.9 °C 39 °F /  3.9 °C 30.3in /  1025.7hPa SW 5.2mph /  8.4km/h 10.4mph /  16.7km/h 51% 0in /  0.0mm CLR
11:10 57 °F /  13.9 °C 39 °F /  3.9 °C 30.3in /  1025.7hPa WSW 5.9mph /  9.5km/h 8.1mph /  13.0km/h 51% 0in /  0.0mm CLR
11:15 57.4 °F /  14.1 °C 38.8 °F /  3.8 °C 30.3in /  1025.7hPa West 5.9mph /  9.5km/h 4.6mph /  7.4km/h 50% 0in /  0.0mm CLR
11:20 57.7 °F /  14.3 °C 39.2 °F /  4.0 °C 30.3in /  1025.5hPa WSW 3.6mph /  5.8km/h 6.4mph /  10.3km/h 50% 0in /  0.0mm CLR
11:25 57.9 °F /  14.4 °C 38.8 °F /  3.8 °C 30.3in /  1025.5hPa WSW 3.6mph /  5.8km/h 8.1mph /  13.0km/h 49% 0in /  0.0mm CLR
11:30 57.9 °F /  14.4 °C 38.8 °F /  3.8 °C 30.3in /  1025.5hPa WNW 4.7mph /  7.6km/h 10.4mph /  16.7km/h 49% 0in /  0.0mm CLR
11:35 58.1 °F /  14.5 °C 38.5 °F /  3.6 °C 30.3in /  1025.4hPa WNW 4.7mph /  7.6km/h 6.4mph /  10.3km/h 48% 0in /  0.0mm CLR
11:40 58.5 °F /  14.7 °C 38.8 °F /  3.8 °C 30.3in /  1025.4hPa SSW 5.2mph /  8.4km/h 8.1mph /  13.0km/h 48% 0in /  0.0mm CLR
11:45 58.8 °F /  14.9 °C 38.7 °F /  3.7 °C 30.3in /  1025.4hPa WSW 5.2mph /  8.4km/h 11.5mph /  18.5km/h 47% 0in /  0.0mm CLR
11:50 59.2 °F /  15.1 °C 38.5 °F /  3.6 °C 30.3in /  1025.1hPa SSW 6.2mph /  10.0km/h 6.9mph /  11.1km/h 46% 0in /  0.0mm CLR
11:55 59.7 °F /  15.4 °C 38.3 °F /  3.5 °C 30.3in /  1025.1hPa SSW 6.2mph /  10.0km/h 9.2mph /  14.8km/h 45% 0in /  0.0mm CLR
12:00 60.1 °F /  15.6 °C 38.1 °F /  3.4 °C 30.3in /  1025.1hPa WSW 6mph /  9.7km/h 12mph /  19.3km/h 44% 0in /  0.0mm CLR
12:05 60.3 °F /  15.7 °C 38.8 °F /  3.8 °C 30.3in /  1025.0hPa SW 5.9mph /  9.5km/h 8.5mph /  13.7km/h 45% 0in /  0.0mm CLR
12:10 60.4 °F /  15.8 °C 38.5 °F /  3.6 °C 30.3in /  1025.0hPa SSW 5.4mph /  8.7km/h 4.6mph /  7.4km/h 44% 0in /  0.0mm CLR
12:15 60.6 °F /  15.9 °C 38.7 °F /  3.7 °C 30.3in /  1025.0hPa WSW 5.4mph /  8.7km/h 8.7mph /  14.0km/h 44% 0in /  0.0mm CLR
12:20 61 °F /  16.1 °C 38.8 °F /  3.8 °C 30.3in /  1024.7hPa SSE 5.2mph /  8.4km/h 8.1mph /  13.0km/h 44% 0in /  0.0mm CLR
12:25 61.2 °F /  16.2 °C 38.5 °F /  3.6 °C 30.3in /  1024.7hPa SW 5.2mph /  8.4km/h 4.7mph /  7.6km/h 43% 0in /  0.0mm CLR
12:30 61.5 °F /  16.4 °C 38.8 °F /  3.8 °C 30.3in /  1024.7hPa South 4.3mph /  6.9km/h 8.1mph /  13.0km/h 43% 0in /  0.0mm CLR
12:35 61.9 °F /  16.6 °C 38.5 °F /  3.6 °C 30.3in /  1024.5hPa WSW 4.3mph /  6.9km/h 4.6mph /  7.4km/h 42% 0in /  0.0mm CLR
12:40 62.2 °F /  16.8 °C 38.8 °F /  3.8 °C 30.3in /  1024.5hPa SSW 4.3mph /  6.9km/h 8.1mph /  13.0km/h 42% 0in /  0.0mm CLR
12:45 62.6 °F /  17.0 °C 38.7 °F /  3.7 °C 30.3in /  1024.5hPa SSW 4.3mph /  6.9km/h 3.5mph /  5.6km/h 41% 0in /  0.0mm CLR
12:50 63 °F /  17.2 °C 38.1 °F /  3.4 °C 30.2in /  1024.2hPa West 4.7mph /  7.6km/h 8.1mph /  13.0km/h 40% 0in /  0.0mm CLR
12:55 62.8 °F /  17.1 °C 38.7 °F /  3.7 °C 30.2in /  1024.2hPa South 4.7mph /  7.6km/h 5.8mph /  9.3km/h 41% 0in /  0.0mm CLR
13:00 63 °F /  17.2 °C 38.1 °F /  3.4 °C 30.2in /  1024.2hPa SW 5mph /  8.0km/h 9mph /  14.5km/h 40% 0in /  0.0mm CLR
13:05 63.1 °F /  17.3 °C 38.5 °F /  3.6 °C 30.2in /  1024.2hPa SSE 4.7mph /  7.6km/h 5.8mph /  9.3km/h 40% 0in /  0.0mm CLR
13:10 63.5 °F /  17.5 °C 38.1 °F /  3.4 °C 30.2in /  1024.2hPa WSW 4mph /  6.4km/h 9.2mph /  14.8km/h 39% 0in /  0.0mm CLR
13:15 63.5 °F /  17.5 °C 38.7 °F /  3.7 °C 30.2in /  1024.2hPa South 4mph /  6.4km/h 5.8mph /  9.3km/h 40% 0in /  0.0mm CLR
13:20 63.7 °F /  17.6 °C 38.1 °F /  3.4 °C 30.2in /  1024.1hPa West 4.7mph /  7.6km/h 5.8mph /  9.3km/h 39% 0in /  0.0mm CLR
13:25 64 °F /  17.8 °C 38.7 °F /  3.7 °C 30.2in /  1024.1hPa NW 4.7mph /  7.6km/h 5.8mph /  9.3km/h 39% 0in /  0.0mm CLR
13:30 64.4 °F /  18.0 °C 38.8 °F /  3.8 °C 30.2in /  1024.1hPa NE 3.6mph /  5.8km/h 4.6mph /  7.4km/h 39% 0in /  0.0mm CLR
13:35 64.9 °F /  18.3 °C 38.7 °F /  3.7 °C 30.2in /  1023.8hPa NE 3.6mph /  5.8km/h 4.6mph /  7.4km/h 38% 0in /  0.0mm CLR
13:40 65.3 °F /  18.5 °C 39 °F /  3.9 °C 30.2in /  1023.8hPa ESE 2.4mph /  3.9km/h 6.9mph /  11.1km/h 38% 0in /  0.0mm CLR
13:45 65.5 °F /  18.6 °C 38.5 °F /  3.6 °C 30.2in /  1023.8hPa NE 2.4mph /  3.9km/h 8.1mph /  13.0km/h 37% 0in /  0.0mm CLR
13:50 65.1 °F /  18.4 °C 38.8 °F /  3.8 °C 30.2in /  1023.7hPa NE 4.3mph /  6.9km/h 3.5mph /  5.6km/h 38% 0in /  0.0mm CLR
13:55 64.9 °F /  18.3 °C 37.9 °F /  3.3 °C 30.2in /  1023.7hPa ENE 4.3mph /  6.9km/h 9.2mph /  14.8km/h 37% 0in /  0.0mm CLR
14:00 64.9 °F /  18.3 °C 38.7 °F /  3.7 °C 30.2in /  1023.7hPa East 5mph /  8.0km/h 9mph /  14.5km/h 38% 0in /  0.0mm CLR
14:05 65.5 °F /  18.6 °C 39.2 °F /  4.0 °C 30.2in /  1023.5hPa East 4.7mph /  7.6km/h 5.8mph /  9.3km/h 38% 0in /  0.0mm CLR
14:10 65.7 °F /  18.7 °C 39.4 °F /  4.1 °C 30.2in /  1023.5hPa North 3.6mph /  5.8km/h 9.2mph /  14.8km/h 38% 0in /  0.0mm CLR
14:15 65.5 °F /  18.6 °C 39.2 °F /  4.0 °C 30.2in /  1023.5hPa NNE 3.6mph /  5.8km/h 13mph /  20.9km/h 38% 0in /  0.0mm CLR
14:20 65.3 °F /  18.5 °C 39 °F /  3.9 °C 30.2in /  1023.3hPa NE 5.2mph /  8.4km/h 10.4mph /  16.7km/h 38% 0in /  0.0mm CLR
14:25 65.1 °F /  18.4 °C 38.8 °F /  3.8 °C 30.2in /  1023.3hPa SSW 5.2mph /  8.4km/h 9.2mph /  14.8km/h 38% 0in /  0.0mm CLR
14:30 65.1 °F /  18.4 °C 38.8 °F /  3.8 °C 30.2in /  1023.3hPa NNW 5.4mph /  8.7km/h 6.9mph /  11.1km/h 38% 0in /  0.0mm CLR
14:35 65.5 °F /  18.6 °C 39.2 °F /  4.0 °C 30.2in /  1023.1hPa ESE 5.4mph /  8.7km/h 10mph /  16.1km/h 38% 0in /  0.0mm CLR
14:40 65.7 °F /  18.7 °C 39.4 °F /  4.1 °C 30.2in /  1023.1hPa ESE 4.7mph /  7.6km/h 3.5mph /  5.6km/h 38% 0in /  0.0mm CLR
14:45 66.2 °F /  19.0 °C 39 °F /  3.9 °C 30.2in /  1023.1hPa ENE 4.7mph /  7.6km/h 9.2mph /  14.8km/h 37% 0in /  0.0mm CLR
14:50 66.4 °F /  19.1 °C 39.4 °F /  4.1 °C 30.2in /  1023.0hPa NE 4mph /  6.4km/h 5.8mph /  9.3km/h 37% 0in /  0.0mm CLR
14:55 66 °F /  18.9 °C 39 °F /  3.9 °C 30.2in /  1023.0hPa NE 4mph /  6.4km/h 13mph /  20.9km/h 37% 0in /  0.0mm CLR
15:00 66 °F /  18.9 °C 39 °F /  3.9 °C 30.2in /  1023.0hPa NNE 6mph /  9.7km/h 13mph /  20.9km/h 37% 0in /  0.0mm CLR
15:05 66.2 °F /  19.0 °C 39 °F /  3.9 °C 30.2in /  1022.9hPa North 6.2mph /  10.0km/h 4.7mph /  7.6km/h 37% 0in /  0.0mm CLR
15:10 66.4 °F /  19.1 °C 39.9 °F /  4.4 °C 30.2in /  1022.9hPa ENE 4.3mph /  6.9km/h 11.5mph /  18.5km/h 38% 0in /  0.0mm CLR
15:15 66.4 °F /  19.1 °C 39.9 °F /  4.4 °C 30.2in /  1022.9hPa ENE 4.3mph /  6.9km/h 11.5mph /  18.5km/h 38% 0in /  0.0mm CLR
15:20 66.6 °F /  19.2 °C 40.1 °F /  4.5 °C 30.2in /  1022.9hPa East 7.4mph /  11.9km/h 11.5mph /  18.5km/h 38% 0in /  0.0mm CLR
15:25 66.6 °F /  19.2 °C 40.1 °F /  4.5 °C 30.2in /  1022.9hPa ENE 7.4mph /  11.9km/h 9.2mph /  14.8km/h 38% 0in /  0.0mm CLR
15:30 66.4 °F /  19.1 °C 40.6 °F /  4.8 °C 30.2in /  1022.9hPa NE 6.4mph /  10.3km/h 11.5mph /  18.5km/h 39% 0in /  0.0mm CLR
15:35 66.6 °F /  19.2 °C 40.1 °F /  4.5 °C 30.2in /  1022.8hPa ENE 6.4mph /  10.3km/h 11.4mph /  18.3km/h 38% 0in /  0.0mm CLR
15:40 66.4 °F /  19.1 °C 40.6 °F /  4.8 °C 30.2in /  1022.8hPa NE 7.6mph /  12.2km/h 9.2mph /  14.8km/h 39% 0in /  0.0mm CLR
15:45 66.6 °F /  19.2 °C 40.1 °F /  4.5 °C 30.2in /  1022.8hPa ENE 7.6mph /  12.2km/h 14.5mph /  23.3km/h 38% 0in /  0.0mm CLR
15:50 66.4 °F /  19.1 °C 40.6 °F /  4.8 °C 30.2in /  1022.7hPa ENE 6.9mph /  11.1km/h 13.8mph /  22.2km/h 39% 0in /  0.0mm CLR
15:55 66.4 °F /  19.1 °C 40.6 °F /  4.8 °C 30.2in /  1022.7hPa ESE 6.9mph /  11.1km/h 9.7mph /  15.6km/h 39% 0in /  0.0mm CLR
16:00 66 °F /  18.9 °C 40.3 °F /  4.6 °C 30.2in /  1022.7hPa East 7mph /  11.3km/h 14mph /  22.5km/h 39% 0in /  0.0mm CLR
16:05 66 °F /  18.9 °C 40.3 °F /  4.6 °C 30.2in /  1022.7hPa ESE 7.4mph /  11.9km/h 11.5mph /  18.5km/h 39% 0in /  0.0mm CLR
16:10 66 °F /  18.9 °C 41 °F /  5.0 °C 30.2in /  1022.7hPa ENE 6.4mph /  10.3km/h 13.8mph /  22.2km/h 40% 0in /  0.0mm CLR
16:15 66.2 °F /  19.0 °C 41.2 °F /  5.1 °C 30.2in /  1022.7hPa SE 6.4mph /  10.3km/h 12.7mph /  20.4km/h 40% 0in /  0.0mm CLR
16:20 66.2 °F /  19.0 °C 40.5 °F /  4.7 °C 30.2in /  1022.7hPa East 7.6mph /  12.2km/h 6.9mph /  11.1km/h 39% 0in /  0.0mm CLR
16:25 65.8 °F /  18.8 °C 40.3 °F /  4.6 °C 30.2in /  1022.7hPa NE 7.6mph /  12.2km/h 13.8mph /  22.2km/h 39% 0in /  0.0mm CLR
16:30 65.7 °F /  18.7 °C 40.6 °F /  4.8 °C 30.2in /  1022.7hPa NE 8.1mph /  13.0km/h 10.4mph /  16.7km/h 40% 0in /  0.0mm CLR
16:35 65.7 °F /  18.7 °C 41.4 °F /  5.2 °C 30.2in /  1022.9hPa ENE 8.1mph /  13.0km/h 8.1mph /  13.0km/h 41% 0in /  0.0mm CLR
16:40 65.7 °F /  18.7 °C 41.4 °F /  5.2 °C 30.2in /  1022.9hPa ENE 6.4mph /  10.3km/h 10.7mph /  17.2km/h 41% 0in /  0.0mm CLR
16:45 65.5 °F /  18.6 °C 41.7 °F /  5.4 °C 30.2in /  1022.9hPa NE 6.4mph /  10.3km/h 9.2mph /  14.8km/h 42% 0in /  0.0mm CLR
16:50 65.5 °F /  18.6 °C 41.7 °F /  5.4 °C 30.2in /  1022.8hPa ESE 7.4mph /  11.9km/h 8.1mph /  13.0km/h 42% 0in /  0.0mm CLR
16:55 65.1 °F /  18.4 °C 41.4 °F /  5.2 °C 30.2in /  1022.8hPa ENE 7.4mph /  11.9km/h 6.9mph /  11.1km/h 42% 0in /  0.0mm CLR
17:00 64.9 °F /  18.3 °C 40.6 °F /  4.8 °C 30.2in /  1022.8hPa NE 6mph /  9.7km/h 11mph /  17.7km/h 41% 0in /  0.0mm CLR
17:05 64.8 °F /  18.2 °C 41.2 °F /  5.1 °C 30.2in /  1022.8hPa ENE 5.9mph /  9.5km/h 10.4mph /  16.7km/h 42% 0in /  0.0mm CLR
17:10 64.9 °F /  18.3 °C 41.9 °F /  5.5 °C 30.2in /  1022.8hPa ENE 6.4mph /  10.3km/h 4.6mph /  7.4km/h 43% 0in /  0.0mm CLR
17:15 65.3 °F /  18.5 °C 41.5 °F /  5.3 °C 30.2in /  1022.8hPa NE 6.4mph /  10.3km/h 5.8mph /  9.3km/h 42% 0in /  0.0mm CLR
17:20 65.3 °F /  18.5 °C 41.5 °F /  5.3 °C 30.2in /  1022.7hPa ESE 3.6mph /  5.8km/h 4.6mph /  7.4km/h 42% 0in /  0.0mm CLR
17:25 65.5 °F /  18.6 °C 41.7 °F /  5.4 °C 30.2in /  1022.7hPa NE 3.6mph /  5.8km/h 5.8mph /  9.3km/h 42% 0in /  0.0mm CLR
17:30 65.1 °F /  18.4 °C 41.4 °F /  5.2 °C 30.2in /  1022.7hPa ENE 4.7mph /  7.6km/h 8.1mph /  13.0km/h 42% 0in /  0.0mm CLR
17:35 65.1 °F /  18.4 °C 41.4 °F /  5.2 °C 30.2in /  1022.5hPa ENE 4.7mph /  7.6km/h 7.4mph /  11.9km/h 42% 0in /  0.0mm CLR
17:40 65.3 °F /  18.5 °C 41.5 °F /  5.3 °C 30.2in /  1022.5hPa NE 4.7mph /  7.6km/h 4.6mph /  7.4km/h 42% 0in /  0.0mm CLR
17:45 65.3 °F /  18.5 °C 41.5 °F /  5.3 °C 30.2in /  1022.5hPa NE 4.7mph /  7.6km/h 8.1mph /  13.0km/h 42% 0in /  0.0mm CLR
17:50 65.1 °F /  18.4 °C 40.8 °F /  4.9 °C 30.2in /  1022.5hPa NE 5.2mph /  8.4km/h 11.5mph /  18.5km/h 41% 0in /  0.0mm CLR
17:55 64.9 °F /  18.3 °C 41.4 °F /  5.2 °C 30.2in /  1022.5hPa ENE 5.2mph /  8.4km/h 9.2mph /  14.8km/h 42% 0in /  0.0mm CLR
18:00 64.9 °F /  18.3 °C 41.4 °F /  5.2 °C 30.2in /  1022.5hPa NE 6mph /  9.7km/h 9mph /  14.5km/h 42% 0in /  0.0mm CLR
18:05 64.9 °F /  18.3 °C 41.4 °F /  5.2 °C 30.2in /  1022.7hPa NE 6.2mph /  10.0km/h 11.4mph /  18.3km/h 42% 0in /  0.0mm CLR
18:10 64.9 °F /  18.3 °C 41.4 °F /  5.2 °C 30.2in /  1022.7hPa East 5.4mph /  8.7km/h 6.9mph /  11.1km/h 42% 0in /  0.0mm CLR
18:15 64.8 °F /  18.2 °C 41.2 °F /  5.1 °C 30.2in /  1022.7hPa ENE 5.4mph /  8.7km/h 10.4mph /  16.7km/h 42% 0in /  0.0mm CLR
18:20 64.8 °F /  18.2 °C 41.7 °F /  5.4 °C 30.2in /  1022.8hPa East 5.4mph /  8.7km/h 6.9mph /  11.1km/h 43% 0in /  0.0mm CLR
18:25 64.6 °F /  18.1 °C 41.5 °F /  5.3 °C 30.2in /  1022.8hPa SE 5.4mph /  8.7km/h 10.4mph /  16.7km/h 43% 0in /  0.0mm CLR
18:30 64.4 °F /  18.0 °C 42.1 °F /  5.6 °C 30.2in /  1022.8hPa ENE 5.4mph /  8.7km/h 8.1mph /  13.0km/h 44% 0in /  0.0mm CLR
18:35 64.2 °F /  17.9 °C 41.7 °F /  5.4 °C 30.2in /  1022.9hPa East 5.4mph /  8.7km/h 11.5mph /  18.5km/h 44% 0in /  0.0mm CLR
18:40 64 °F /  17.8 °C 42.3 °F /  5.7 °C 30.2in /  1022.9hPa East 6.2mph /  10.0km/h 6.9mph /  11.1km/h 45% 0in /  0.0mm CLR
18:45 64 °F /  17.8 °C 42.3 °F /  5.7 °C 30.2in /  1022.9hPa ENE 6.2mph /  10.0km/h 9.2mph /  14.8km/h 45% 0in /  0.0mm CLR
18:50 63.9 °F /  17.7 °C 42.6 °F /  5.9 °C 30.2in /  1023.0hPa East 4.3mph /  6.9km/h 9.2mph /  14.8km/h 46% 0in /  0.0mm CLR
18:55 63.7 °F /  17.6 °C 42.4 °F /  5.8 °C 30.2in /  1023.0hPa SE 4.3mph /  6.9km/h 9.2mph /  14.8km/h 46% 0in /  0.0mm CLR
19:00 63.7 °F /  17.6 °C 43.2 °F /  6.2 °C 30.2in /  1023.0hPa East 6mph /  9.7km/h 8mph /  12.9km/h 47% 0in /  0.0mm CLR
19:05 63.5 °F /  17.5 °C 43 °F /  6.1 °C 30.2in /  1023.0hPa ENE 5.4mph /  8.7km/h 4.6mph /  7.4km/h 47% 0in /  0.0mm CLR
19:10 63.5 °F /  17.5 °C 43 °F /  6.1 °C 30.2in /  1023.0hPa NE 3.1mph /  5.0km/h 4.7mph /  7.6km/h 47% 0in /  0.0mm CLR
19:15 63.3 °F /  17.4 °C 43.3 °F /  6.3 °C 30.2in /  1023.0hPa ENE 3.1mph /  5.0km/h 5.9mph /  9.5km/h 48% 0in /  0.0mm CLR
19:20 63.3 °F /  17.4 °C 43.3 °F /  6.3 °C 30.2in /  1023.2hPa East 3.1mph /  5.0km/h 6.9mph /  11.1km/h 48% 0in /  0.0mm CLR
19:25 63 °F /  17.2 °C 43.5 °F /  6.4 °C 30.2in /  1023.2hPa ENE 3.1mph /  5.0km/h 9.2mph /  14.8km/h 49% 0in /  0.0mm CLR
19:30 62.8 °F /  17.1 °C 43.9 °F /  6.6 °C 30.2in /  1023.2hPa NE 5.4mph /  8.7km/h 5.8mph /  9.3km/h 50% 0in /  0.0mm CLR
19:35 62.6 °F /  17.0 °C 44.2 °F /  6.8 °C 30.2in /  1023.3hPa East 5.4mph /  8.7km/h 9.2mph /  14.8km/h 51% 0in /  0.0mm CLR
19:40 62.2 °F /  16.8 °C 43.9 °F /  6.6 °C 30.2in /  1023.3hPa East 5.2mph /  8.4km/h 6.9mph /  11.1km/h 51% 0in /  0.0mm CLR
19:45 62.1 °F /  16.7 °C 43.7 °F /  6.5 °C 30.2in /  1023.3hPa East 5.2mph /  8.4km/h 5.2mph /  8.4km/h 51% 0in /  0.0mm CLR
19:50 61.9 °F /  16.6 °C 43.5 °F /  6.4 °C 30.2in /  1023.4hPa East 3.6mph /  5.8km/h 2.4mph /  3.9km/h 51% 0in /  0.0mm CLR
19:55 61.9 °F /  16.6 °C 43.5 °F /  6.4 °C 30.2in /  1023.4hPa ENE 3.6mph /  5.8km/h 3.5mph /  5.6km/h 51% 0in /  0.0mm CLR
20:00 61.5 °F /  16.4 °C 43.2 °F /  6.2 °C 30.2in /  1023.4hPa ENE 2mph /  3.2km/h 5mph /  8.0km/h 51% 0in /  0.0mm CLR
20:05 61.5 °F /  16.4 °C 43.7 °F /  6.5 °C 30.2in /  1023.6hPa ENE 1.8mph /  2.9km/h 4.6mph /  7.4km/h 52% 0in /  0.0mm CLR
20:10 61.3 °F /  16.3 °C 43.5 °F /  6.4 °C 30.2in /  1023.6hPa ENE 2.9mph /  4.7km/h 4.6mph /  7.4km/h 52% 0in /  0.0mm CLR
20:15 61.2 °F /  16.2 °C 43.9 °F /  6.6 °C 30.2in /  1023.6hPa East 2.9mph /  4.7km/h 3.5mph /  5.6km/h 53% 0in /  0.0mm CLR
20:20 61.2 °F /  16.2 °C 43.9 °F /  6.6 °C 30.2in /  1023.7hPa East 2.9mph /  4.7km/h 3.5mph /  5.6km/h 53% 0in /  0.0mm CLR
20:25 61.2 °F /  16.2 °C 43.9 °F /  6.6 °C 30.2in /  1023.7hPa East 2.9mph /  4.7km/h 3.5mph /  5.6km/h 53% 0in /  0.0mm CLR
20:30 61.2 °F /  16.2 °C 43.9 °F /  6.6 °C 30.2in /  1023.7hPa ENE 2.4mph /  3.9km/h 4.6mph /  7.4km/h 53% 0in /  0.0mm CLR
20:35 61 °F /  16.1 °C 44.2 °F /  6.8 °C 30.2in /  1023.9hPa NE 2.4mph /  3.9km/h 4.6mph /  7.4km/h 54% 0in /  0.0mm CLR
20:40 61 °F /  16.1 °C 44.2 °F /  6.8 °C 30.2in /  1023.9hPa ENE 2.9mph /  4.7km/h 4.6mph /  7.4km/h 54% 0in /  0.0mm CLR
20:45 60.6 °F /  15.9 °C 44.4 °F /  6.9 °C 30.2in /  1023.9hPa NE 2.9mph /  4.7km/h 4.6mph /  7.4km/h 55% 0in /  0.0mm CLR
20:50 60.6 °F /  15.9 °C 44.8 °F /  7.1 °C 30.2in /  1024.1hPa ENE 2.9mph /  4.7km/h 4.6mph /  7.4km/h 56% 0in /  0.0mm CLR
20:55 60.4 °F /  15.8 °C 44.8 °F /  7.1 °C 30.2in /  1024.1hPa ENE 2.9mph /  4.7km/h 2.9mph /  4.7km/h 56% 0in /  0.0mm CLR
21:00 60.4 °F /  15.8 °C 44.8 °F /  7.1 °C 30.2in /  1024.1hPa NE 2mph /  3.2km/h 5mph /  8.0km/h 56% 0in /  0.0mm CLR
21:05 60.3 °F /  15.7 °C 45 °F /  7.2 °C 30.2in /  1024.2hPa NE 2mph /  3.2km/h 5.8mph /  9.3km/h 57% 0in /  0.0mm CLR
21:10 60.1 °F /  15.6 °C 45.1 °F /  7.3 °C 30.2in /  1024.2hPa NE 3.1mph /  5.0km/h 5.8mph /  9.3km/h 58% 0in /  0.0mm CLR
21:15 59.7 °F /  15.4 °C 45 °F /  7.2 °C 30.2in /  1024.2hPa NNE 3.1mph /  5.0km/h 4.6mph /  7.4km/h 58% 0in /  0.0mm CLR
21:20 59.7 °F /  15.4 °C 45.3 °F /  7.4 °C 30.3in /  1024.3hPa NNE 3.1mph /  5.0km/h 2.4mph /  3.9km/h 59% 0in /  0.0mm CLR
21:25 59.5 °F /  15.3 °C 45.1 °F /  7.3 °C 30.3in /  1024.3hPa NNE 3.1mph /  5.0km/h 2.9mph /  4.7km/h 59% 0in /  0.0mm CLR
21:30 59.4 °F /  15.2 °C 45 °F /  7.2 °C 30.3in /  1024.3hPa NE 1.8mph /  2.9km/h 3.5mph /  5.6km/h 59% 0in /  0.0mm CLR
21:35 59.2 °F /  15.1 °C 45.3 °F /  7.4 °C 30.3in /  1024.3hPa NE 1.8mph /  2.9km/h 2.4mph /  3.9km/h 60% 0in /  0.0mm CLR
21:40 59.2 °F /  15.1 °C 45.3 °F /  7.4 °C 30.3in /  1024.3hPa NE 1.8mph /  2.9km/h 2.9mph /  4.7km/h 60% 0in /  0.0mm CLR
21:45 58.8 °F /  14.9 °C 45.3 °F /  7.4 °C 30.3in /  1024.3hPa NE 1.8mph /  2.9km/h 4.6mph /  7.4km/h 61% 0in /  0.0mm CLR
21:50 58.8 °F /  14.9 °C 45.3 °F /  7.4 °C 30.3in /  1024.3hPa NE 2.9mph /  4.7km/h 4.6mph /  7.4km/h 61% 0in /  0.0mm CLR
21:55 58.6 °F /  14.8 °C 45.1 °F /  7.3 °C 30.3in /  1024.3hPa NE 2.9mph /  4.7km/h 3.5mph /  5.6km/h 61% 0in /  0.0mm CLR
22:00 58.6 °F /  14.8 °C 45.1 °F /  7.3 °C 30.3in /  1024.3hPa NE 2mph /  3.2km/h 4mph /  6.4km/h 61% 0in /  0.0mm CLR
22:05 58.6 °F /  14.8 °C 45.1 °F /  7.3 °C 30.3in /  1024.5hPa NW 2mph /  3.2km/h 3.6mph /  5.8km/h 61% 0in /  0.0mm CLR
22:10 58.5 °F /  14.7 °C 45.1 °F /  7.3 °C 30.3in /  1024.5hPa NW 2mph /  3.2km/h 4.6mph /  7.4km/h 61% 0in /  0.0mm CLR
22:15 58.5 °F /  14.7 °C 45.1 °F /  7.3 °C 30.3in /  1024.5hPa NNW 2mph /  3.2km/h 4.6mph /  7.4km/h 61% 0in /  0.0mm CLR
22:20 58.5 °F /  14.7 °C 45.1 °F /  7.3 °C 30.3in /  1024.5hPa NW 2.4mph /  3.9km/h 3.5mph /  5.6km/h 61% 0in /  0.0mm CLR
22:25 58.5 °F /  14.7 °C 45.1 °F /  7.3 °C 30.3in /  1024.5hPa NW 2.4mph /  3.9km/h 4.6mph /  7.4km/h 61% 0in /  0.0mm CLR
22:30 58.5 °F /  14.7 °C 45.1 °F /  7.3 °C 30.3in /  1024.5hPa NW 2.9mph /  4.7km/h 3.5mph /  5.6km/h 61% 0in /  0.0mm CLR
22:35 58.5 °F /  14.7 °C 45.1 °F /  7.3 °C 30.3in /  1024.6hPa NW 2.9mph /  4.7km/h 4.6mph /  7.4km/h 61% 0in /  0.0mm CLR
22:40 58.5 °F /  14.7 °C 45.1 °F /  7.3 °C 30.3in /  1024.6hPa NW 2.4mph /  3.9km/h 3.5mph /  5.6km/h 61% 0in /  0.0mm CLR
22:45 58.3 °F /  14.6 °C 45.3 °F /  7.4 °C 30.3in /  1024.6hPa NW 2.4mph /  3.9km/h 4.6mph /  7.4km/h 62% 0in /  0.0mm CLR
22:50 58.3 °F /  14.6 °C 45.3 °F /  7.4 °C 30.3in /  1024.5hPa WNW 3.1mph /  5.0km/h 4.6mph /  7.4km/h 62% 0in /  0.0mm CLR
22:55 58.3 °F /  14.6 °C 45.3 °F /  7.4 °C 30.3in /  1024.5hPa WNW 3.1mph /  5.0km/h 4.6mph /  7.4km/h 62% 0in /  0.0mm CLR
23:00 58.3 °F /  14.6 °C 45.3 °F /  7.4 °C 30.3in /  1024.5hPa WNW 2mph /  3.2km/h 5mph /  8.0km/h 62% 0in /  0.0mm CLR
23:05 58.3 °F /  14.6 °C 45.3 °F /  7.4 °C 30.3in /  1024.5hPa WNW 2.9mph /  4.7km/h 3.6mph /  5.8km/h 62% 0in /  0.0mm CLR
23:10 58.3 °F /  14.6 °C 45.3 °F /  7.4 °C 30.3in /  1024.5hPa WNW 2.4mph /  3.9km/h 2.3mph /  3.7km/h 62% 0in /  0.0mm CLR
23:15 58.5 °F /  14.7 °C 45.1 °F /  7.3 °C 30.3in /  1024.5hPa NW 2.4mph /  3.9km/h 3.5mph /  5.6km/h 61% 0in /  0.0mm CLR
23:20 58.5 °F /  14.7 °C 45.1 °F /  7.3 °C 30.3in /  1024.5hPa West 2mph /  3.2km/h 4.6mph /  7.4km/h 61% 0in /  0.0mm CLR
23:25 58.5 °F /  14.7 °C 45.5 °F /  7.5 °C 30.3in /  1024.5hPa WSW 2mph /  3.2km/h 4.6mph /  7.4km/h 62% 0in /  0.0mm CLR
23:30 58.5 °F /  14.7 °C 45.1 °F /  7.3 °C 30.3in /  1024.5hPa SW 2.4mph /  3.9km/h 3.5mph /  5.6km/h 61% 0in /  0.0mm CLR
23:35 58.6 °F /  14.8 °C 45.1 °F /  7.3 °C 30.2in /  1024.2hPa SSW 2.4mph /  3.9km/h 4.6mph /  7.4km/h 61% 0in /  0.0mm CLR
23:40 58.6 °F /  14.8 °C 45.1 °F /  7.3 °C 30.2in /  1024.2hPa SSW 3.1mph /  5.0km/h 3.5mph /  5.6km/h 61% 0in /  0.0mm CLR
23:45 58.6 °F /  14.8 °C 45.1 °F /  7.3 °C 30.2in /  1024.2hPa SSW 3.1mph /  5.0km/h 3.5mph /  5.6km/h 61% 0in /  0.0mm CLR
23:50 58.8 °F /  14.9 °C 45.3 °F /  7.4 °C 30.2in /  1024.1hPa SSW 2.4mph /  3.9km/h 4.6mph /  7.4km/h 61% 0in /  0.0mm CLR
23:55 58.8 °F /  14.9 °C 45.3 °F /  7.4 °C 30.2in /  1024.1hPa SSW 2.4mph /  3.9km/h 2.4mph /  3.9km/h 61% 0in /  0.0mm CLR
Murcia-Puente Tocinos, España
Compliments of Weather Underground - 2.75 mb

La estación de MeteoMurcia.com, publica sus datos en los siguientes proyectos:

Weather Underground PWS IMURCIAP2 Meteoclimatic www.awekas.at

W3Counter
Web Analytics